Flight Track Log - Related Links

Times and Time Zones

All times are in EDT time to prevent confusion due to time zone crossing. See the UAL1054 flight status page for this flight to view local times or setup timezone preferences in your user account.

Time Position Orientation Groundspeed Altitude Reporting Facility
EDT Latitude Longitude Course Direction KTS MPH feet Rate Location/Type
Tue 10:57:55 AM 39.8745 -104.5898 100° East 207 238 6,300  Level FlightAware ADS-B (EGNT / NCL)
Tue 10:58:28 AM 39.8630 -104.5473 114° Southeast 238 274 7,200 1,556 Climbing FlightAware ADS-B (EGNT / NCL)
Tue 10:58:49 AM 39.8531 -104.5197 115° Southeast 258 297 7,700 1,935 Climbing FlightAware ADS-B (EGNT / NCL)
Tue 10:59:30 AM 39.8329 -104.4614 113° Southeast 264 304 9,200 2,262 Climbing FlightAware ADS-B (EGNT / NCL)
Tue 10:59:50 AM 39.8227 -104.4313 114° Southeast 270 311 10,000 1,938 Climbing FlightAware ADS-B (EGNT / NCL)
Tue 11:00:35 AM 39.7999 -104.3652 114° Southeast 308 354 11,300 1,416 Climbing FlightAware ADS-B (EGNT / NCL)
Tue 11:01:19 AM 39.7725 -104.2863 115° Southeast 337 388 12,100 1,350 Climbing FlightAware ADS-B (EGNT / NCL)
Tue 11:01:55 AM 39.7504 -104.2178 115° Southeast 358 412 13,100 2,029 Climbing FlightAware ADS-B (EGNT / NCL)
Tue 11:02:27 AM 39.7259 -104.1513 115° Southeast 363 418 14,400 2,261 Climbing FlightAware ADS-B (EHAM / AMS)
Tue 11:03:04 AM 39.7036 -104.0895 115° Southeast 375 432 15,700 1,899 Climbing FlightAware ADS-B (EGNT / NCL)
Tue 11:03:46 AM 39.6714 -103.9984 115° Southeast 391 450 16,900 2,333 Climbing FlightAware ADS-B (EGNT / NCL)
Tue 11:03:58 AM 39.6594 -103.9644 115° Southeast 390 449 17,800 1,800 Climbing FlightAware ADS-B (EHAM / AMS)
Tue 11:04:36 AM 39.6272 -103.8839 118° Southeast 407 468 18,400 1,391 Climbing FlightAware ADS-B (EGNT / NCL)
Tue 11:05:07 AM 39.6015 -103.8207 118° Southeast 415 478 19,400 1,846 Climbing FlightAware ADS-B (EGNT / NCL)
Tue 11:05:41 AM 39.5809 -103.7540 109° East 422 486 20,400 1,816 Climbing FlightAware ADS-B (EHAM / AMS)
Tue 11:06:23 AM 39.5500 -103.6356 109° East 429 494 21,700 1,808 Climbing FlightAware ADS-B (EHAM / AMS)
Tue 11:06:54 AM 39.5302 -103.5596 109° East 434 499 22,600 1,742 Climbing FlightAware ADS-B (EGNT / NCL)
Tue 11:07:25 AM 39.5126 -103.4926 109° East 439 505 23,500 1,629 Climbing FlightAware ADS-B (EGNT / NCL)
Tue 11:08:04 AM 39.4843 -103.3848 109° East 447 514 24,500 1,421 Climbing FlightAware ADS-B (EGNT / NCL)
Tue 11:08:41 AM 39.4635 -103.3065 109° East 458 527 25,300 1,371 Climbing FlightAware ADS-B (EGNT / NCL)
Tue 11:09:49 AM 39.4130 -103.1164 109° East 470 541 26,900 1,286 Climbing FlightAware ADS-B (EGNT / NCL)
Tue 11:10:19 AM 39.3943 -103.0464 109° East 476 548 27,400 871 Climbing FlightAware ADS-B (EGNT / NCL)
Tue 11:10:51 AM 39.3691 -102.9526 109° East 484 557 27,800 952 Climbing FlightAware ADS-B (EHAM / AMS)
Tue 11:11:22 AM 39.3469 -102.8700 109° East 491 565 28,400 1,180 Climbing FlightAware ADS-B (EGNT / NCL)
Tue 11:11:52 AM 39.3328 -102.8177 109° East 495 570 29,000 1,038 Climbing FlightAware ADS-B (EGNT / NCL)
Tue 11:13:06 AM 39.2868 -102.6479 109° East 502 578 30,200 1,107 Climbing FlightAware ADS-B (EGNT / NCL)
Tue 11:14:40 AM 39.2096 -102.3494 108° East 505 581 32,100 1,016 Climbing FlightAware ADS-B (EGNT / NCL)
Tue 11:17:14 AM 39.0499 -101.8826 116° Southeast 505 581 34,400 888 Climbing FlightAware ADS-B (EGNT / NCL)
Tue 11:17:56 AM 39.0077 -101.7733 116° Southeast 507 583 35,000 288 Climbing FlightAware ADS-B (EGNT / NCL)
Tue 11:19:19 AM 38.9193 -101.5453 117° Southeast 509 586 35,000  Level FlightAware ADS-B (EGNT / NCL)
Tue 11:19:54 AM 38.8925 -101.4775 117° Southeast 506 582 35,000  Level Denver Center
Tue 11:20:56 AM 38.8217 -101.2958 117° Southeast 506 582 35,000  Level Denver Center
Tue 11:21:58 AM 38.7608 -101.1425 117° Southeast 506 582 35,000  Level Denver Center
Tue 11:23:49 AM 38.6386 -100.8333 117° Southeast 507 583 35,000  Level Kansas City Center
Tue 11:24:50 AM 38.5781 -100.6811 117° Southeast 504 580 35,000  Level Kansas City Center
Tue 11:25:51 AM 38.5167 -100.5294 117° Southeast 504 580 35,000  Level Kansas City Center
Tue 11:26:55 AM 38.4444 -100.3508 117° Southeast 504 580 35,000  Level Kansas City Center
Tue 11:27:56 AM 38.3817 -100.1992 118° Southeast 504 580 35,000  Level Kansas City Center
Tue 11:28:59 AM 38.3092 -100.0219 117° Southeast 504 580 35,000  Level Kansas City Center
Tue 11:30:00 AM 38.2467 -99.8692 117° Southeast 504 580 35,000  Level Kansas City Center
Tue 11:31:04 AM 38.1719 -99.6908 118° Southeast 506 582 35,000  Level Kansas City Center
Tue 11:32:04 AM 38.1083 -99.5389 118° Southeast 506 582 35,000  Level Kansas City Center
Tue 11:33:08 AM 38.0436 -99.3819 118° Southeast 506 582 35,000  Level Kansas City Center
Tue 11:34:08 AM 37.9778 -99.2256 118° Southeast 506 582 35,000  Level Kansas City Center
Tue 11:35:10 AM 37.9133 -99.0711 118° Southeast 504 580 35,000  Level Kansas City Center
Tue 11:36:13 AM 37.8361 -98.8875 118° Southeast 501 577 35,000  Level Kansas City Center
Tue 11:37:14 AM 37.7700 -98.7328 118° Southeast 500 575 35,000  Level Kansas City Center
Tue 11:38:18 AM 37.7053 -98.5786 118° Southeast 500 575 35,000  Level Kansas City Center
Tue 11:39:19 AM 37.6381 -98.4264 119° Southeast 500 575 35,000  Level Kansas City Center
Tue 11:40:23 AM 37.5719 -98.2722 118° Southeast 501 577 35,000  Level Kansas City Center
Tue 11:41:24 AM 37.4922 -98.0875 118° Southeast 503 579 35,000  Level Kansas City Center
Tue 11:42:26 AM 37.4247 -97.9333 119° Southeast 504 580 35,000  Level Kansas City Center
Tue 11:43:29 AM 37.3622 -97.7769 117° Southeast 506 582 35,000  Level Kansas City Center
Tue 11:44:30 AM 37.3058 -97.6169 114° Southeast 506 582 35,000  Level Kansas City Center
Tue 11:45:33 AM 37.2475 -97.4589 115° Southeast 505 581 35,000  Level Kansas City Center
Tue 11:46:34 AM 37.1767 -97.2728 115° Southeast 499 574 35,000  Level Kansas City Center
Tue 11:47:35 AM 37.1189 -97.1158 115° Southeast 499 574 35,000  Level Kansas City Center
Tue 11:48:39 AM 37.0611 -96.9589 115° Southeast 499 574 35,000  Level Kansas City Center
Tue 11:49:40 AM 37.0022 -96.8039 115° Southeast 498 573 35,000  Level Kansas City Center
Tue 11:50:44 AM 36.9406 -96.6361 115° Southeast 496 571 35,000  Level Kansas City Center
Tue 11:51:45 AM 36.8817 -96.4794 115° Southeast 496 571 35,000  Level Kansas City Center
Tue 11:52:46 AM 36.8272 -96.3236 114° Southeast 491 565 35,000  Level Kansas City Center
Tue 11:53:50 AM 36.7547 -96.1375 116° Southeast 491 565 35,000  Level Kansas City Center
Tue 11:54:50 AM 36.6958 -95.9828 115° Southeast 491 565 35,000  Level Kansas City Center
Tue 11:55:54 AM 36.6353 -95.8264 116° Southeast 494 568 35,000  Level Kansas City Center
Tue 11:56:55 AM 36.5719 -95.6625 116° Southeast 495 570 35,000  Level Kansas City Center
Tue 11:57:59 AM 36.5142 -95.5100 115° Southeast 493 567 35,000  Level Kansas City Center
Tue 11:59:00 AM 36.4533 -95.3533 116° Southeast 494 568 35,000  Level Kansas City Center
Tue 12:00:01 PM 36.3894 -95.1967 117° Southeast 501 577 35,000  Level Kansas City Center
Tue 12:01:05 PM 36.3269 -95.0400 116° Southeast 500 575 35,000  Level Kansas City Center
Tue 12:02:05 PM 36.2672 -94.8886 116° Southeast 494 568 35,000  Level Kansas City Center
Tue 12:02:43 PM 36.2189 -94.7672 116° Southeast 494 568 35,000  Level Memphis Center
Tue 12:03:45 PM 36.1583 -94.6156 116° Southeast 494 568 35,000  Level Memphis Center
Tue 12:04:47 PM 36.0989 -94.4664 116° Southeast 490 564 35,000  Level Memphis Center
Tue 12:05:49 PM 36.0378 -94.3178 117° Southeast 488 562 35,000  Level Memphis Center
Tue 12:06:51 PM 35.9786 -94.1706 116° Southeast 484 557 35,000  Level Memphis Center
Tue 12:07:53 PM 35.9194 -94.0267 117° Southeast 479 551 35,000  Level Memphis Center
Tue 12:13:07 PM 35.5983 -93.2481 117° Southeast 470 541 35,000  Level FlightAware ADS-B
Tue 12:13:48 PM 35.5580 -93.1516 117° Southeast 468 539 35,000  Level FlightAware ADS-B
Tue 12:14:27 PM 35.5193 -93.0593 117° Southeast 468 539 35,000  Level FlightAware ADS-B
Tue 12:15:05 PM 35.4831 -92.9735 117° Southeast 467 537 35,000  Level FlightAware ADS-B
Tue 12:15:47 PM 35.4426 -92.8774 117° Southeast 466 536 35,000  Level FlightAware ADS-B
Tue 12:16:30 PM 35.3976 -92.7711 118° Southeast 466 536 35,000  Level FlightAware ADS-B
Tue 12:17:09 PM 35.3584 -92.6788 118° Southeast 462 532 35,000  Level FlightAware ADS-B
Tue 12:17:50 PM 35.3195 -92.5873 118° Southeast 461 531 35,000  Level FlightAware ADS-B
Tue 12:18:25 PM 35.2874 -92.5123 118° Southeast 461 531 35,000  Level FlightAware ADS-B
Tue 12:19:10 PM 35.2403 -92.4021 118° Southeast 460 529 35,000  Level FlightAware ADS-B
Tue 12:19:49 PM 35.2014 -92.3115 118° Southeast 459 528 35,000  Level FlightAware ADS-B
Tue 12:20:30 PM 35.1603 -92.2163 118° Southeast 458 527 35,000  Level FlightAware ADS-B
Tue 12:21:07 PM 35.1239 -92.1317 118° Southeast 457 526 35,000  Level FlightAware ADS-B
Tue 12:22:32 PM 35.0468 -91.9542 118° Southeast 457 526 35,000  Level FlightAware ADS-B
Tue 12:23:24 PM 34.9989 -91.8517 118° Southeast 455 524 35,000  Level Memphis Center
Tue 12:24:27 PM 34.9292 -91.6867 117° Southeast 455 524 35,000  Level Memphis Center
Tue 12:25:29 PM 34.8722 -91.5567 118° Southeast 456 525 35,000  Level Memphis Center
Tue 12:26:31 PM 34.8108 -91.4197 119° Southeast 456 525 35,000  Level Memphis Center
Tue 12:27:33 PM 34.7506 -91.2828 118° Southeast 457 526 35,000  Level Memphis Center
Tue 12:28:35 PM 34.6775 -91.1189 118° Southeast 458 527 35,000  Level Memphis Center
Tue 12:29:37 PM 34.6183 -90.9831 118° Southeast 458 527 35,000  Level Memphis Center
Tue 12:30:40 PM 34.5583 -90.8489 118° Southeast 458 527 35,000  Level Memphis Center
Tue 12:31:41 PM 34.4978 -90.7150 119° Southeast 458 527 35,000  Level Memphis Center
Tue 12:32:43 PM 34.4378 -90.5806 118° Southeast 457 526 35,000  Level Memphis Center
Tue 12:33:45 PM 34.3769 -90.4486 119° Southeast 457 526 35,000  Level Memphis Center
Tue 12:34:47 PM 34.3050 -90.2900 119° Southeast 455 524 35,000  Level Memphis Center
Tue 12:35:49 PM 34.2436 -90.1581 119° Southeast 454 522 35,000  Level Memphis Center
Tue 12:36:51 PM 34.1842 -90.0261 119° Southeast 454 522 35,000  Level Memphis Center
Tue 12:37:53 PM 34.1236 -89.8947 119° Southeast 454 522 35,000  Level Memphis Center
Tue 12:38:56 PM 34.0636 -89.7628 119° Southeast 454 522 35,000  Level Memphis Center
Tue 12:39:58 PM 33.9903 -89.6058 119° Southeast 454 522 35,000  Level Memphis Center
Tue 12:41:00 PM 33.9306 -89.4750 119° Southeast 453 521 35,000  Level Memphis Center
Tue 12:42:02 PM 33.8694 -89.3456 120° Southeast 452 520 35,000  Level Memphis Center
Tue 12:43:04 PM 33.8086 -89.2147 119° Southeast 450 518 35,000  Level Memphis Center
Tue 12:44:06 PM 33.7478 -89.0853 119° Southeast 450 518 35,000  Level Memphis Center
Tue 12:45:08 PM 33.6744 -88.9306 120° Southeast 450 518 35,000 97 Level Memphis Center
Tue 12:46:10 PM 33.6106 -88.7978 120° Southeast 449 517 35,200 823 Climbing Memphis Center
Tue 12:47:12 PM 33.5500 -88.6697 120° Southeast 448 516 36,700 871 Climbing Memphis Center
Tue 12:48:14 PM 33.4922 -88.5489 120° Southeast 442 509 37,000 145 Climbing Memphis Center
Tue 12:49:16 PM 33.4317 -88.4228 120° Southeast 442 509 37,000  Level Memphis Center
Tue 12:50:18 PM 33.3583 -88.2711 120° Southeast 441 507 37,000  Level Memphis Center
Tue 12:51:21 PM 33.2947 -88.1383 120° Southeast 441 507 37,000  Level Memphis Center
Tue 12:52:23 PM 33.2331 -88.0114 120° Southeast 442 509 37,000  Level Memphis Center
Tue 12:53:25 PM 33.1714 -87.8867 121° Southeast 442 509 37,000  Level Memphis Center
Tue 12:54:27 PM 33.1111 -87.7611 120° Southeast 441 507 37,000  Level Memphis Center
Tue 12:55:29 PM 33.0506 -87.6369 120° Southeast 440 506 37,000  Level Memphis Center
Tue 12:56:31 PM 32.9878 -87.5133 121° Southeast 440 506 37,000  Level Memphis Center
Tue 12:57:33 PM 32.9161 -87.3644 120° Southeast 436 502 37,000  Level Memphis Center
Tue 12:58:21 PM 32.8750 -87.2789 120° Southeast 434 499 37,000  Level Atlanta Center
Tue 12:59:21 PM 32.8111 -87.1628 123° Southeast 434 499 37,000  Level Atlanta Center
Tue 01:00:21 PM 32.7558 -87.0372 118° Southeast 434 499 37,000  Level Atlanta Center
Tue 01:01:21 PM 32.6939 -86.9192 122° Southeast 434 499 37,000  Level Atlanta Center
Tue 01:02:21 PM 32.6342 -86.7989 121° Southeast 434 499 37,000  Level Atlanta Center
Tue 01:03:21 PM 32.5742 -86.6811 121° Southeast 434 499 37,000  Level Atlanta Center
Tue 01:04:21 PM 32.5139 -86.5611 121° Southeast 434 499 37,000  Level Atlanta Center
Tue 01:05:21 PM 32.4558 -86.4439 120° Southeast 420 483 37,000  Level Atlanta Center
Tue 01:06:21 PM 32.3833 -86.3089 122° Southeast 427 491 37,000  Level Atlanta Center
Tue 01:07:21 PM 32.3186 -86.1919 123° Southeast 434 499 37,000  Level Atlanta Center
Tue 01:08:21 PM 32.2622 -86.0678 118° Southeast 434 499 37,000  Level Atlanta Center
Tue 01:09:21 PM 32.1994 -85.9461 121° Southeast 427 491 37,000  Level Atlanta Center
Tue 01:10:21 PM 32.1344 -85.8269 123° Southeast 432 497 37,000  Level Atlanta Center
Tue 01:11:21 PM 32.0736 -85.7031 120° Southeast 432 497 37,000  Level Atlanta Center
Tue 01:13:22 PM 31.9483 -85.4658 122° Southeast 430 495 37,000  Level Jacksonville Center
Tue 01:14:22 PM 31.8881 -85.3492 121° Southeast 430 495 37,000  Level Jacksonville Center
Tue 01:15:22 PM 31.8297 -85.2328 121° Southeast 424 488 37,000  Level Jacksonville Center
Tue 01:16:22 PM 31.7669 -85.1211 123° Southeast 416 479 37,000  Level Jacksonville Center
Tue 01:17:22 PM 31.7064 -85.0050 121° Southeast 416 479 37,000  Level Jacksonville Center
Tue 01:18:22 PM 31.6456 -84.8864 121° Southeast 422 486 37,000  Level Jacksonville Center
Tue 01:19:22 PM 31.5828 -84.7656 121° Southeast 422 486 37,000  Level Jacksonville Center
Tue 01:20:22 PM 31.5197 -84.6472 122° Southeast 422 486 37,000  Level Jacksonville Center
Tue 01:21:22 PM 31.4567 -84.5292 122° Southeast 422 486 37,000 -477 Level Jacksonville Center
Tue 01:26:52 PM 31.1142 -83.8906 122° Southeast 438 504 33,900 -617 Descending FlightAware ADS-B (KONZ)
Tue 01:27:41 PM 31.0516 -83.7752 122° Southeast 442 509 33,100 -955 Descending FlightAware ADS-B (KONZ)
Tue 01:28:20 PM 31.0096 -83.6982 123° Southeast 446 513 32,500 -933 Descending FlightAware ADS-B (KONZ)
Tue 01:29:11 PM 30.9527 -83.5941 122° Southeast 446 513 31,700 -885 Descending FlightAware ADS-B (KONZ)
Tue 01:30:22 PM 30.8833 -83.4711 122° Southeast 439 505 30,700 -1,008 Descending Jacksonville Center
Tue 01:31:22 PM 30.8128 -83.3353 121° Southeast 439 505 29,500 -1,100 Descending Jacksonville Center
Tue 01:32:22 PM 30.7358 -83.2333 131° Southeast 434 499 28,500 -1,000 Descending Jacksonville Center
Tue 01:33:22 PM 30.6483 -83.1389 137° Southeast 428 493 27,500 -750 Descending Jacksonville Center
Tue 01:34:22 PM 30.5650 -83.0542 139° Southeast 416 479 27,000 -350 Descending Jacksonville Center
Tue 01:35:22 PM 30.4753 -82.9625 139° Southeast 411 473 26,800 -600 Descending Jacksonville Center
Tue 01:36:22 PM 30.3897 -82.8758 139° Southeast 416 479 25,800 -258 Descending Jacksonville Center
Tue 01:42:21 PM 29.8671 -82.4152 163° South 407 468 25,000 -120 Descending FlightAware ADS-B
Tue 01:43:01 PM 29.7714 -82.3810 163° South 407 468 25,000 -154 Level FlightAware ADS-B
Tue 01:43:39 PM 29.7282 -82.3656 163° South 409 471 24,800 -868 Descending FlightAware ADS-B
Tue 01:45:33 PM 29.5027 -82.2714 154° Southeast 402 463 22,800 -1,360 Descending FlightAware ADS-B
Tue 01:47:02 PM 29.3617 -82.1934 154° Southeast 382 440 20,200 -1,927 Descending FlightAware ADS-B
Tue 01:48:46 PM 29.1985 -82.1038 154° Southeast 361 415 16,600 -2,044 Descending FlightAware ADS-B
Tue 01:50:04 PM 29.0802 -82.0389 154° Southeast 350 403 14,000 -1,967 Descending FlightAware ADS-B
Tue 01:50:48 PM 29.0174 -82.0046 155° Southeast 344 396 12,600 -1,697 Descending FlightAware ADS-B
Tue 01:51:43 PM 28.9396 -81.9621 154° Southeast 323 372 11,200 -847 Descending FlightAware ADS-B
Tue 01:53:45 PM 28.8289 -81.8374 124° Southeast 250 288 10,100 -647 Descending FlightAware ADS-B
Tue 01:54:30 PM 28.8114 -81.8058 104° East 250 288 9,400 -818 Descending FlightAware ADS-B
Tue 01:55:13 PM 28.7952 -81.7348 104° East 247 284 8,900 -286 Descending FlightAware ADS-B
Tue 01:56:15 PM 28.7776 -81.6526 104° East 247 284 8,900  Level FlightAware ADS-B
Tue 01:56:35 PM 28.7724 -81.6281 104° East 248 285 8,900  Level FlightAware ADS-B
Tue 01:56:54 PM 28.7668 -81.6023 105° East 246 283 8,900 -150 Level FlightAware ADS-B
Tue 01:57:15 PM 28.7631 -81.5765 91° East 247 284 8,800 -885 Descending FlightAware ADS-B
Tue 01:57:55 PM 28.7638 -81.5281 89° East 245 282 8,000 -1,119 Descending FlightAware ADS-B
Tue 01:58:14 PM 28.7640 -81.4991 90° East 242 278 7,700 -1,200 Descending FlightAware ADS-B
Tue 01:58:30 PM 28.7577 -81.4768 122° Southeast 234 269 7,300 -1,317 Descending FlightAware ADS-B (KSFB)
Tue 01:58:55 PM 28.7452 -81.4558 124° Southeast 235 270 6,800 -1,477 Descending FlightAware ADS-B
Tue 01:59:35 PM 28.7210 -81.4125 125° Southeast 237 273 5,700 -1,500 Descending FlightAware ADS-B
Tue 01:59:55 PM 28.7086 -81.3924 125° Southeast 231 266 5,300 -1,400 Descending FlightAware ADS-B
Tue 02:00:35 PM 28.6779 -81.3608 145° Southeast 228 262 4,300 -1,377 Descending FlightAware ADS-B
Tue 02:00:56 PM 28.6608 -81.3471 145° Southeast 226 260 3,900 -714 Descending FlightAware ADS-B
Tue 02:01:17 PM 28.6555 -81.3428 146° Southeast 229 264 3,800 -1,050 Descending FlightAware ADS-B (KSFB)
Tue 02:01:36 PM 28.6372 -81.3295 176° South 227 261 3,200 -1,579 Descending FlightAware ADS-B (KSFB)
Tue 02:01:55 PM 28.6028 -81.3288 179° South 219 252 2,800 -1,171 Descending FlightAware ADS-B
Tue 02:02:17 PM 28.5812 -81.3283 179° South 202 232 2,400 -1,000 Descending FlightAware ADS-B (KSFB)
Tue 02:02:37 PM 28.5626 -81.3280 179° South 198 228 2,100 -1,050 Descending FlightAware ADS-B
Tue 02:02:57 PM 28.5444 -81.3280 179° South 192 221 1,700 -984 Descending FlightAware ADS-B
Tue 02:03:38 PM 28.5115 -81.3276 179° South 160 184 1,100 -885 Descending FlightAware ADS-B
Tue 02:03:58 PM 28.4967 -81.3273 179° South 156 180 800 -714 Descending FlightAware ADS-B
Tue 02:04:20 PM 28.4810 -81.3273 181° South 153 176 600 -714 Descending FlightAware ADS-B
Tue 02:04:40 PM 28.4670 -81.3272 179° South 157 181 300 -900 Descending FlightAware ADS-B

Login

Don't have an account? Register now (free) for customized features, flight alerts, and more!